createdAt,value
2022-08-18T00:01:20.018Z,98755.08
2022-08-18T00:03:56.330Z,98761.17
2022-08-18T00:06:29.885Z,98764.23
2022-08-18T00:09:00.913Z,98762.14
2022-08-18T00:11:40.644Z,98760.75
2022-08-18T00:14:22.638Z,98765.42
2022-08-18T00:16:54.069Z,98770.85
2022-08-18T00:19:43.500Z,98770.16
2022-08-18T00:22:16.155Z,98768.02
2022-08-18T00:24:48.154Z,98770.23
2022-08-18T00:27:23.082Z,98770.30
2022-08-18T00:29:53.765Z,98768.83
2022-08-18T00:32:34.228Z,98766.96
2022-08-18T00:35:09.086Z,98767.66
2022-08-18T00:37:37.566Z,98766.77
2022-08-18T00:40:07.243Z,98766.64
2022-08-18T00:42:44.539Z,98766.25
2022-08-18T00:45:23.903Z,98761.48
2022-08-18T00:47:52.695Z,98760.52
2022-08-18T00:50:26.687Z,98763.37
2022-08-18T00:53:03.541Z,98762.65
2022-08-18T00:55:33.529Z,98756.55
2022-08-18T00:58:11.751Z,98753.61
2022-08-18T01:04:24.449Z,98748.84
2022-08-18T01:06:57.947Z,98749.77
2022-08-18T01:09:26.445Z,98753.34
2022-08-18T01:11:54.607Z,98751.22
2022-08-18T01:14:22.867Z,98752.11
2022-08-18T01:17:10.248Z,98749.09
2022-08-18T01:19:58.218Z,98747.82
2022-08-18T01:22:39.063Z,98759.02
2022-08-18T01:25:27.612Z,98767.20
2022-08-18T01:28:00.975Z,98768.56
2022-08-18T01:30:31.728Z,98769.24
2022-08-18T01:33:00.009Z,98770.86
2022-08-18T01:35:28.741Z,98766.48
2022-08-18T01:38:13.626Z,98765.48
2022-08-18T01:41:01.001Z,98762.38
2022-08-18T01:43:31.349Z,98764.80
2022-08-18T01:46:01.186Z,98760.30
2022-08-18T01:48:33.200Z,98760.96
2022-08-18T01:51:03.797Z,98768.77
2022-08-18T01:53:32.035Z,98775.70
2022-08-18T01:56:00.589Z,98771.67
2022-08-18T01:58:31.744Z,98770.17
2022-08-18T02:01:04.191Z,98766.34
2022-08-18T02:03:36.163Z,98768.96
2022-08-18T02:06:09.994Z,98769.34
2022-08-18T02:08:38.808Z,98766.69
2022-08-18T02:11:11.918Z,98765.92
2022-08-18T02:13:40.640Z,98766.08
2022-08-18T02:16:09.075Z,98759.39
2022-08-18T02:18:47.494Z,98750.48
2022-08-18T02:21:19.468Z,98745.33
2022-08-18T02:23:53.439Z,98740.59
2022-08-18T02:26:23.622Z,98742.11
2022-08-18T02:28:51.866Z,98745.83
2022-08-18T02:31:23.062Z,98744.42
2022-08-18T02:33:52.788Z,98737.84
2022-08-18T02:36:23.987Z,98731.89
2022-08-18T02:38:59.231Z,98733.45
2022-08-18T02:41:30.082Z,98732.16
2022-08-18T02:43:59.048Z,98727.44
2022-08-18T02:46:29.915Z,98723.59
2022-08-18T02:49:00.740Z,98729.59
2022-08-18T02:51:29.488Z,98731.23
2022-08-18T02:54:00.363Z,98732.81
2022-08-18T02:56:41.542Z,98731.31
2022-08-18T02:59:16.497Z,98725.64
2022-08-18T03:01:48.256Z,98727.67
2022-08-18T03:04:22.903Z,98729.36
2022-08-18T03:07:00.510Z,98724.50
2022-08-18T03:09:29.921Z,98723.58
2022-08-18T03:11:59.064Z,98727.46
2022-08-18T03:14:28.361Z,98732.77
2022-08-18T03:16:56.678Z,98735.20
2022-08-18T03:19:28.718Z,98739.28
2022-08-18T03:22:03.046Z,98744.08
2022-08-18T03:24:33.154Z,98742.67
2022-08-18T03:27:06.377Z,98739.39
2022-08-18T03:29:36.309Z,98741.62
2022-08-18T03:32:07.155Z,98747.77
2022-08-18T03:34:35.732Z,98747.16
2022-08-18T03:37:04.111Z,98745.92
2022-08-18T03:39:32.240Z,98751.35
2022-08-18T03:42:02.115Z,98753.10
2022-08-18T03:44:33.929Z,98750.11
2022-08-18T03:47:04.006Z,98748.79
2022-08-18T03:49:33.973Z,98750.21
2022-08-18T03:52:03.528Z,98755.77
2022-08-18T03:54:32.933Z,98764.36
2022-08-18T03:59:47.285Z,98768.61
2022-08-18T04:02:15.517Z,98771.15
2022-08-18T04:04:43.721Z,98766.69
2022-08-18T04:07:14.730Z,98766.27
2022-08-18T04:09:43.599Z,98770.60
2022-08-18T04:12:16.999Z,98778.95
2022-08-18T04:14:48.773Z,98778.64
2022-08-18T04:17:25.512Z,98784.20
2022-08-18T04:19:55.474Z,98783.06
2022-08-18T04:22:25.283Z,98776.17
2022-08-18T04:24:54.420Z,98780.08
2022-08-18T04:27:23.004Z,98780.41
2022-08-18T04:29:51.112Z,98784.78
2022-08-18T04:32:19.781Z,98785.75
2022-08-18T04:34:48.482Z,98787.29
2022-08-18T04:37:17.540Z,98789.27
2022-08-18T04:39:46.193Z,98790.06
2022-08-18T04:42:15.213Z,98785.44
2022-08-18T04:44:43.416Z,98781.88
2022-08-18T04:47:13.089Z,98786.77
2022-08-18T04:49:41.297Z,98792.71
2022-08-18T04:52:40.575Z,98795.15
2022-08-18T04:55:11.073Z,98792.22
2022-08-18T04:57:39.498Z,98796.91
2022-08-18T05:00:09.235Z,98795.61
2022-08-18T05:02:37.428Z,98794.06
2022-08-18T05:05:06.658Z,98790.90
2022-08-18T05:07:34.836Z,98795.34
2022-08-18T05:10:04.302Z,98801.33
2022-08-18T05:12:32.723Z,98800.00
2022-08-18T05:15:01.035Z,98795.95
2022-08-18T05:17:31.260Z,98799.02
2022-08-18T05:20:01.781Z,98800.48
2022-08-18T05:22:31.795Z,98802.15
2022-08-18T05:27:46.148Z,98793.84
2022-08-18T05:30:15.495Z,98795.62
2022-08-18T05:32:49.179Z,98798.19
2022-08-18T05:35:25.491Z,98797.54
2022-08-18T05:38:16.092Z,98802.83
2022-08-18T05:40:46.207Z,98803.66
2022-08-18T05:43:16.640Z,98802.65
2022-08-18T05:45:45.088Z,98805.02
2022-08-18T05:48:19.859Z,98804.61
2022-08-18T05:50:51.920Z,98799.64
2022-08-18T05:53:40.819Z,98803.14
2022-08-18T05:56:30.913Z,98801.35
2022-08-18T05:59:01.801Z,98803.33
2022-08-18T06:01:36.309Z,98806.52
2022-08-18T06:04:21.069Z,98806.36
2022-08-18T06:06:51.627Z,98814.23
2022-08-18T06:09:25.703Z,98810.22
2022-08-18T06:11:58.799Z,98808.02
2022-08-18T06:14:27.176Z,98806.42
2022-08-18T06:17:46.701Z,98813.11
2022-08-18T06:20:30.390Z,98814.34
2022-08-18T06:23:01.911Z,98822.85
2022-08-18T06:25:55.532Z,98820.69
2022-08-18T06:28:23.798Z,98821.45
2022-08-18T06:31:09.343Z,98827.39
2022-08-18T06:33:56.116Z,98831.11
2022-08-18T06:36:46.180Z,98833.10
2022-08-18T06:39:31.743Z,98827.80
2022-08-18T06:42:00.952Z,98825.52
2022-08-18T06:44:39.340Z,98823.95
2022-08-18T06:47:17.039Z,98826.06
2022-08-18T06:49:51.448Z,98826.13
2022-08-18T06:52:24.195Z,98829.27
2022-08-18T06:54:54.877Z,98834.45
2022-08-18T06:57:30.998Z,98834.09
2022-08-18T07:00:20.845Z,98832.23
2022-08-18T07:02:52.312Z,98834.00
2022-08-18T07:05:37.308Z,98840.19
2022-08-18T07:08:30.521Z,98842.20
2022-08-18T07:11:11.840Z,98847.33
2022-08-18T07:13:42.673Z,98846.94
2022-08-18T07:16:47.390Z,98848.85
2022-08-18T07:19:21.092Z,98846.36
2022-08-18T07:22:30.114Z,98846.54
2022-08-18T07:25:30.502Z,98851.61
2022-08-18T07:28:01.914Z,98849.98
2022-08-18T07:30:36.909Z,98848.07
2022-08-18T07:33:04.974Z,98852.58
2022-08-18T07:35:43.009Z,98845.46
2022-08-18T07:38:41.578Z,98841.21
2022-08-18T07:41:15.138Z,98836.63
2022-08-18T07:43:51.365Z,98837.46
2022-08-18T07:46:44.040Z,98839.35
2022-08-18T07:49:22.756Z,98837.71
2022-08-18T07:52:00.002Z,98836.14
2022-08-18T07:55:06.236Z,98831.80
2022-08-18T07:57:45.128Z,98836.43
2022-08-18T08:00:57.731Z,98841.62
2022-08-18T08:03:41.963Z,98839.82
2022-08-18T08:07:12.891Z,98842.95
2022-08-18T08:09:52.245Z,98840.03
2022-08-18T08:12:37.610Z,98837.08
2022-08-18T08:15:36.857Z,98841.36
2022-08-18T08:18:20.177Z,98839.35
2022-08-18T08:21:14.871Z,98837.19
2022-08-18T08:23:52.030Z,98835.63
2022-08-18T08:26:43.307Z,98837.64
2022-08-18T08:29:37.388Z,98833.63
2022-08-18T08:32:15.674Z,98832.30
2022-08-18T08:34:59.440Z,98829.67
2022-08-18T08:37:36.732Z,98828.90
2022-08-18T08:40:27.589Z,98836.30
2022-08-18T08:43:07.980Z,98834.73
2022-08-18T08:45:48.183Z,98832.52
2022-08-18T08:48:29.866Z,98832.13
2022-08-18T08:51:17.623Z,98831.33
2022-08-18T08:53:53.593Z,98831.32
2022-08-18T08:56:27.127Z,98840.92
2022-08-18T08:59:00.695Z,98840.18
2022-08-18T09:01:34.867Z,98847.83
2022-08-18T09:05:01.171Z,98848.66
2022-08-18T09:07:50.649Z,98848.21
2022-08-18T09:10:33.670Z,98853.89
2022-08-18T09:13:28.400Z,98857.48
2022-08-18T09:16:14.185Z,98858.19
2022-08-18T09:18:48.069Z,98857.45
2022-08-18T09:21:37.741Z,98858.48
2022-08-18T09:24:26.268Z,98857.96
2022-08-18T09:27:31.015Z,98864.14
2022-08-18T09:30:02.371Z,98862.77
2022-08-18T09:33:20.991Z,98861.59
2022-08-18T09:36:28.464Z,98851.31
2022-08-18T09:39:27.431Z,98848.48
2022-08-18T09:42:09.741Z,98845.54
2022-08-18T09:44:46.806Z,98843.83
2022-08-18T09:50:27.678Z,98846.09
2022-08-18T09:53:02.260Z,98839.44
2022-08-18T09:55:32.846Z,98840.60
2022-08-18T09:58:26.525Z,98835.88
2022-08-18T10:01:34.335Z,98832.02
2022-08-18T10:04:29.529Z,98823.73
2022-08-18T10:07:43.581Z,98819.39
2022-08-18T10:11:01.683Z,98814.13
2022-08-18T10:17:13.462Z,98813.73
2022-08-18T10:19:44.292Z,98817.93
2022-08-18T10:22:37.328Z,98821.17
2022-08-18T10:27:57.764Z,98825.67
2022-08-18T10:30:49.343Z,98829.70
2022-08-18T10:34:05.488Z,98835.14
2022-08-18T10:36:49.462Z,98826.91
2022-08-18T10:39:22.244Z,98829.05
2022-08-18T10:42:30.919Z,98823.95
2022-08-18T10:45:28.208Z,98817.27
2022-08-18T10:48:02.563Z,98815.27
2022-08-18T10:50:38.547Z,98826.45
2022-08-18T10:53:43.983Z,98827.17
2022-08-18T10:56:28.659Z,98827.61
2022-08-18T10:59:16.479Z,98820.15
2022-08-18T11:02:03.792Z,98823.07
2022-08-18T11:04:38.720Z,98815.63
2022-08-18T11:07:13.119Z,98808.29
2022-08-18T11:09:50.626Z,98803.04
2022-08-18T11:12:45.575Z,98800.11
2022-08-18T11:15:38.595Z,98787.65
2022-08-18T11:18:13.750Z,98787.82
2022-08-18T11:20:47.534Z,98787.16
2022-08-18T11:23:17.658Z,98790.22
2022-08-18T11:25:48.406Z,98785.02
2022-08-18T11:28:30.353Z,98780.89
2022-08-18T11:30:59.689Z,98776.95
2022-08-18T11:33:28.478Z,98776.20
2022-08-18T11:35:58.523Z,98776.17
2022-08-18T11:38:29.654Z,98778.11
2022-08-18T11:41:33.199Z,98780.28
2022-08-18T11:44:26.603Z,98781.17
2022-08-18T11:47:19.035Z,98775.23
2022-08-18T11:49:58.617Z,98771.06
2022-08-18T11:52:32.949Z,98768.46
2022-08-18T11:55:16.298Z,98764.51
2022-08-18T11:57:58.594Z,98761.21
2022-08-18T12:03:45.417Z,98757.08
2022-08-18T12:06:32.762Z,98755.41
2022-08-18T12:09:07.120Z,98753.32
2022-08-18T12:12:01.463Z,98751.23
2022-08-18T12:14:35.509Z,98748.30
2022-08-18T12:17:08.063Z,98739.86
2022-08-18T12:19:36.612Z,98738.45
2022-08-18T12:22:15.881Z,98734.61
2022-08-18T12:24:46.820Z,98728.52
2022-08-18T12:27:22.111Z,98732.89
2022-08-18T12:29:52.908Z,98729.84
2022-08-18T12:32:48.977Z,98731.71
2022-08-18T12:35:12.539Z,98724.33
2022-08-18T12:38:13.359Z,98719.55
2022-08-18T12:40:33.927Z,98715.73
2022-08-18T12:43:02.158Z,98711.98
2022-08-18T12:45:34.047Z,98706.42
2022-08-18T12:48:04.390Z,98702.23
2022-08-18T12:50:36.405Z,98701.58
2022-08-18T12:53:07.793Z,98697.48
2022-08-18T12:55:44.042Z,98697.17
2022-08-18T12:58:13.704Z,98692.84
2022-08-18T13:00:43.374Z,98689.84
2022-08-18T13:03:11.655Z,98692.41
2022-08-18T13:05:40.658Z,98697.74
2022-08-18T13:08:27.756Z,98702.61
2022-08-18T13:11:14.688Z,98701.43
2022-08-18T13:13:53.125Z,98702.13
2022-08-18T13:16:53.428Z,98701.08
2022-08-18T13:19:20.316Z,98704.77
2022-08-18T13:21:49.645Z,98705.48
2022-08-18T13:24:21.983Z,98707.77
2022-08-18T13:26:51.692Z,98703.75
2022-08-18T13:29:21.203Z,98705.52
2022-08-18T13:31:55.418Z,98706.61
2022-08-18T13:34:29.780Z,98709.52
2022-08-18T13:36:58.652Z,98708.38
2022-08-18T13:39:33.650Z,98706.50
2022-08-18T13:42:26.293Z,98703.13
2022-08-18T13:44:54.973Z,98711.27
2022-08-18T13:47:29.362Z,98707.66
2022-08-18T13:50:00.247Z,98707.04
2022-08-18T13:52:41.159Z,98711.98
2022-08-18T13:55:16.923Z,98717.96
2022-08-18T13:57:50.029Z,98720.27
2022-08-18T14:00:29.542Z,98718.80
2022-08-18T14:03:02.210Z,98717.35
2022-08-18T14:05:50.978Z,98716.61
2022-08-18T14:08:20.736Z,98721.75
2022-08-18T14:10:53.326Z,98718.73
2022-08-18T14:13:25.012Z,98717.84
2022-08-18T14:15:56.197Z,98723.16
2022-08-18T14:18:28.715Z,98726.28
2022-08-18T14:21:23.018Z,98731.59
2022-08-18T14:24:14.514Z,98730.02
2022-08-18T14:26:50.387Z,98733.48
2022-08-18T14:29:46.218Z,98726.92
2022-08-18T14:32:08.183Z,98728.32
2022-08-18T14:34:36.963Z,98729.02
2022-08-18T14:37:05.045Z,98726.15
2022-08-18T14:39:38.254Z,98732.39
2022-08-18T14:42:06.642Z,98731.48
2022-08-18T14:44:36.663Z,98734.38
2022-08-18T14:47:04.971Z,98732.58
2022-08-18T14:49:33.391Z,98730.12
2022-08-18T14:52:02.522Z,98730.49
2022-08-18T14:54:32.474Z,98729.20
2022-08-18T14:57:02.693Z,98731.39
2022-08-18T14:59:34.519Z,98727.43
2022-08-18T15:02:13.364Z,98724.98
2022-08-18T15:04:53.006Z,98720.84
2022-08-18T15:07:26.570Z,98711.14
2022-08-18T15:10:14.754Z,98705.68
2022-08-18T15:12:45.189Z,98698.33
2022-08-18T15:15:17.666Z,98695.78
2022-08-18T15:17:50.009Z,98692.00
2022-08-18T15:20:29.477Z,98689.56
2022-08-18T15:23:27.936Z,98684.38
2022-08-18T15:25:57.064Z,98682.70
2022-08-18T15:28:28.220Z,98680.61
2022-08-18T15:33:51.071Z,98677.17
2022-08-18T15:36:24.061Z,98680.95
2022-08-18T15:38:59.440Z,98681.23
2022-08-18T15:41:44.285Z,98676.16
2022-08-18T15:44:14.608Z,98678.16
2022-08-18T15:46:43.203Z,98674.11
2022-08-18T15:49:19.808Z,98674.20
2022-08-18T15:51:52.654Z,98678.11
2022-08-18T15:54:21.068Z,98677.59
2022-08-18T15:56:57.863Z,98679.64
2022-08-18T15:59:34.396Z,98688.75
2022-08-18T16:02:11.744Z,98683.79
2022-08-18T16:04:43.105Z,98676.59
2022-08-18T16:07:14.914Z,98668.81
2022-08-18T16:09:46.554Z,98671.65
2022-08-18T16:12:14.624Z,98669.48
2022-08-18T16:14:42.778Z,98671.59
2022-08-18T16:17:18.284Z,98667.34
2022-08-18T16:19:52.101Z,98665.23
2022-08-18T16:22:21.263Z,98669.66
2022-08-18T16:24:54.975Z,98669.37
2022-08-18T16:27:25.399Z,98669.52
2022-08-18T16:29:53.824Z,98671.91
2022-08-18T16:32:22.531Z,98668.38
2022-08-18T16:34:52.670Z,98667.97
2022-08-18T16:37:20.728Z,98666.36
2022-08-18T16:39:48.873Z,98668.95
2022-08-18T16:42:17.457Z,98669.61
2022-08-18T16:44:45.644Z,98672.64
2022-08-18T16:47:14.330Z,98680.40
2022-08-18T16:49:42.517Z,98680.41
2022-08-18T16:52:10.887Z,98679.30
2022-08-18T16:54:38.999Z,98678.32
2022-08-18T16:57:07.264Z,98677.83
2022-08-18T16:59:55.026Z,98679.64
2022-08-18T17:02:43.063Z,98677.36
2022-08-18T17:05:12.380Z,98677.93
2022-08-18T17:07:41.372Z,98675.96
2022-08-18T17:10:10.563Z,98672.83
2022-08-18T17:12:41.282Z,98672.29
2022-08-18T17:15:09.807Z,98672.13
2022-08-18T17:17:37.911Z,98671.09
2022-08-18T17:20:11.130Z,98672.45
2022-08-18T17:22:39.571Z,98669.02
2022-08-18T17:25:10.360Z,98667.48
2022-08-18T17:27:40.245Z,98661.98
2022-08-18T17:30:18.022Z,98658.59
2022-08-18T17:32:51.834Z,98655.08
2022-08-18T17:35:37.256Z,98647.08
2022-08-18T17:38:21.510Z,98642.18
2022-08-18T17:40:54.029Z,98636.51
2022-08-18T17:43:29.162Z,98633.98
2022-08-18T17:46:02.248Z,98625.23
2022-08-18T17:48:55.275Z,98621.05
2022-08-18T17:51:33.904Z,98610.64
2022-08-18T17:54:36.957Z,98616.58
2022-08-18T17:57:12.488Z,98615.91
2022-08-18T17:59:51.819Z,98614.47
2022-08-18T18:02:29.875Z,98617.98
2022-08-18T18:05:00.864Z,98622.99
2022-08-18T18:07:47.861Z,98628.95
2022-08-18T18:10:37.832Z,98634.34
2022-08-18T18:13:13.645Z,98639.97
2022-08-18T18:15:50.307Z,98644.83
2022-08-18T18:18:37.183Z,98657.54
2022-08-18T18:21:16.365Z,98662.55
2022-08-18T18:23:47.632Z,98667.16
2022-08-18T18:26:43.052Z,98669.32
2022-08-18T18:29:33.264Z,98671.54
2022-08-18T18:32:29.317Z,98681.72
2022-08-18T18:35:12.755Z,98697.48
2022-08-18T18:37:54.093Z,98700.78
2022-08-18T18:40:36.337Z,98704.06
2022-08-18T18:43:38.246Z,98702.41
2022-08-18T18:46:23.434Z,98701.88
2022-08-18T18:49:13.981Z,98705.23
2022-08-18T18:52:00.936Z,98708.02
2022-08-18T18:54:56.956Z,98719.13
2022-08-18T18:57:40.147Z,98727.96
2022-08-18T19:00:23.367Z,98725.36
2022-08-18T19:02:58.734Z,98720.42
2022-08-18T19:05:38.674Z,98721.04
2022-08-18T19:08:33.056Z,98726.95
2022-08-18T19:11:01.790Z,98733.00
2022-08-18T19:13:43.848Z,98730.35
2022-08-18T19:16:24.097Z,98728.90
2022-08-18T19:19:38.272Z,98724.45
2022-08-18T19:22:23.150Z,98722.64
2022-08-18T19:25:07.386Z,98717.67
2022-08-18T19:27:56.173Z,98716.73
2022-08-18T19:30:24.613Z,98721.15
2022-08-18T19:32:59.239Z,98720.35
2022-08-18T19:36:01.314Z,98717.88
2022-08-18T19:38:40.248Z,98715.80
2022-08-18T19:41:19.898Z,98714.67
2022-08-18T19:43:58.702Z,98718.25
2022-08-18T19:46:45.178Z,98716.02
2022-08-18T19:49:50.128Z,98715.48
2022-08-18T19:52:45.701Z,98716.42
2022-08-18T19:55:33.087Z,98718.85
2022-08-18T19:58:40.523Z,98713.73
2022-08-18T20:01:50.528Z,98706.02
2022-08-18T20:04:18.860Z,98698.89
2022-08-18T20:07:43.384Z,98691.02
2022-08-18T20:10:21.023Z,98682.55
2022-08-18T20:13:05.682Z,98677.73
2022-08-18T20:15:34.083Z,98672.66
2022-08-18T20:18:19.751Z,98667.39
2022-08-18T20:21:16.845Z,98659.57
2022-08-18T20:23:59.916Z,98650.89
2022-08-18T20:26:39.971Z,98648.67
2022-08-18T20:29:30.382Z,98644.66
2022-08-18T20:32:03.027Z,98652.48
2022-08-18T20:34:33.676Z,98644.73
2022-08-18T20:37:10.445Z,98642.36
2022-08-18T20:39:56.468Z,98636.39
2022-08-18T20:42:24.794Z,98641.21
2022-08-18T20:45:13.164Z,98642.46
2022-08-18T20:48:23.898Z,98639.26
2022-08-18T20:50:59.113Z,98633.52
2022-08-18T20:54:25.643Z,98635.33
2022-08-18T20:56:59.828Z,98634.41
2022-08-18T20:59:41.690Z,98629.55
2022-08-18T21:02:24.979Z,98628.41
2022-08-18T21:04:57.957Z,98626.66
2022-08-18T21:07:38.058Z,98630.70
2022-08-18T21:10:18.798Z,98629.61
2022-08-18T21:12:54.876Z,98634.66
2022-08-18T21:15:27.801Z,98643.85
2022-08-18T21:18:09.472Z,98644.47
2022-08-18T21:20:37.746Z,98648.42
2022-08-18T21:23:11.636Z,98654.52
2022-08-18T21:25:59.226Z,98658.65
2022-08-18T21:28:32.455Z,98661.27
2022-08-18T21:31:30.794Z,98666.96
2022-08-18T21:33:58.446Z,98665.34
2022-08-18T21:36:32.145Z,98667.08
2022-08-18T21:39:14.288Z,98660.50
2022-08-18T21:41:48.279Z,98661.58
2022-08-18T21:44:41.779Z,98659.27
2022-08-18T21:47:31.719Z,98656.69
2022-08-18T21:50:10.279Z,98653.33
2022-08-18T21:52:53.028Z,98652.42
2022-08-18T21:55:33.276Z,98647.90
2022-08-18T21:58:39.011Z,98656.98
2022-08-18T22:01:30.203Z,98656.88
2022-08-18T22:06:20.261Z,98646.99
2022-08-18T22:09:21.656Z,98650.11
2022-08-18T22:12:28.354Z,98640.60
2022-08-18T22:15:13.678Z,98643.09
2022-08-18T22:17:54.056Z,98640.86
2022-08-18T22:20:43.996Z,98636.16
2022-08-18T22:23:30.427Z,98633.38
2022-08-18T22:26:27.821Z,98626.43
2022-08-18T22:29:00.334Z,98625.37
2022-08-18T22:31:34.988Z,98629.31
2022-08-18T22:34:09.867Z,98629.56
2022-08-18T22:36:43.146Z,98636.38
2022-08-18T22:39:25.854Z,98635.14
2022-08-18T22:41:54.451Z,98645.92
2022-08-18T22:44:23.284Z,98649.15
2022-08-18T22:46:52.796Z,98648.14
2022-08-18T22:49:25.044Z,98652.14
2022-08-18T22:51:57.023Z,98648.81
2022-08-18T22:54:26.971Z,98649.08
2022-08-18T22:56:57.747Z,98645.69
2022-08-18T22:59:26.864Z,98644.54
2022-08-18T23:01:57.996Z,98645.38
2022-08-18T23:04:27.100Z,98647.83
2022-08-18T23:06:56.243Z,98645.25
2022-08-18T23:09:27.974Z,98642.52
2022-08-18T23:12:01.287Z,98641.84
2022-08-18T23:14:32.487Z,98636.66
2022-08-18T23:17:02.623Z,98637.30
2022-08-18T23:19:32.106Z,98636.33
2022-08-18T23:22:01.920Z,98637.70
2022-08-18T23:24:31.456Z,98635.71
2022-08-18T23:27:00.268Z,98641.98
2022-08-18T23:29:28.387Z,98644.79
2022-08-18T23:31:56.881Z,98644.65
2022-08-18T23:34:27.331Z,98644.63
2022-08-18T23:37:01.112Z,98637.00
2022-08-18T23:39:34.599Z,98634.88
2022-08-18T23:42:06.503Z,98634.17
2022-08-18T23:44:34.794Z,98631.41
2022-08-18T23:47:03.364Z,98628.36
2022-08-18T23:49:32.678Z,98625.06
2022-08-18T23:52:03.068Z,98624.94
2022-08-18T23:54:35.032Z,98621.83
2022-08-18T23:57:03.246Z,98614.83
2022-08-18T23:59:31.461Z,98610.95
